Time;durP1;ratioP1;P1;durP2;ratioP2;P2;SDS_P1;SDS_P2;PMS_P1;PMS_P2;Temp;Humidity;BMP_temperature;BMP_pressure;BME280_temperature;BME280_humidity;BME280_pressure;Samples;Min_cycle;Max_cycle;Signal;HPM_P1;HPM_P2
2022/03/01 00:00:56;;;;;;;9.40;5.45;;;0.50;1.00;;;;;;5054800;28;20691;-75
2022/03/01 00:03:26;;;;;;;13.85;6.50;;;0.50;1.00;;;;;;5055068;28;20202;-75
2022/03/01 00:05:52;;;;;;;9.95;5.85;;;0.50;1.00;;;;;;5064384;28;20197;-75
2022/03/01 00:08:20;;;;;;;10.77;6.10;;;0.50;1.00;;;;;;5053689;28;20180;-75
2022/03/01 00:10:56;;;;;;;13.23;6.07;;;0.50;1.00;;;;;;5055389;28;20607;-74
2022/03/01 00:13:39;;;;;;;9.00;5.97;;;0.50;1.00;;;;;;5059989;28;20183;-75
2022/03/01 00:16:08;;;;;;;9.60;5.50;;;0.50;1.00;;;;;;5054689;28;20176;-75
2022/03/01 00:18:34;;;;;;;7.82;5.50;;;0.50;1.00;;;;;;5067811;28;20516;-74
2022/03/01 00:21:02;;;;;;;10.10;5.73;;;0.50;1.00;;;;;;5054858;28;20202;-74
2022/03/01 00:23:28;;;;;;;11.23;6.22;;;0.50;1.00;;;;;;5054361;28;20176;-75
2022/03/01 00:25:54;;;;;;;9.40;6.23;;;0.50;1.00;;;;;;5067210;28;20175;-74
2022/03/01 00:28:20;;;;;;;9.03;5.73;;;0.50;1.00;;;;;;5061127;28;20413;-74
2022/03/01 00:30:46;;;;;;;9.68;5.95;;;0.50;1.00;;;;;;5062214;28;20163;-74
2022/03/01 00:33:14;;;;;;;8.10;5.73;;;0.40;1.00;;;;;;5060124;28;20175;-74
2022/03/01 00:35:44;;;;;;;12.38;5.95;;;0.40;1.00;;;;;;5061880;28;20168;-75
2022/03/01 00:38:20;;;;;;;8.50;5.72;;;0.40;1.00;;;;;;5072671;28;20520;-74
2022/03/01 00:40:47;;;;;;;7.50;5.60;;;0.30;1.00;;;;;;5066353;28;20716;-74
2022/03/01 00:43:15;;;;;;;9.43;5.30;;;0.30;1.00;;;;;;5074332;28;20210;-74
2022/03/01 00:45:51;;;;;;;12.65;5.90;;;0.30;1.00;;;;;;5059252;28;20621;-74
2022/03/01 00:48:26;;;;;;;11.63;6.82;;;0.30;1.00;;;;;;5054622;28;20205;-74
2022/03/01 00:50:52;;;;;;;9.02;5.97;;;0.30;1.00;;;;;;5054025;28;20182;-74
2022/03/01 00:53:20;;;;;;;14.27;6.87;;;0.30;1.00;;;;;;5043485;28;20534;-75
2022/03/01 00:55:50;;;;;;;9.77;6.13;;;0.20;1.00;;;;;;5061227;28;20561;-74
2022/03/01 00:58:20;;;;;;;13.40;6.45;;;0.20;1.00;;;;;;5053929;28;20600;-75
2022/03/01 01:00:56;;;;;;;10.52;6.25;;;0.20;1.00;;;;;;5067189;28;20182;-74
2022/03/01 01:03:22;;;;;;;12.30;6.25;;;0.20;1.00;;;;;;5069172;28;20175;-74
2022/03/01 01:05:50;;;;;;;12.50;6.07;;;0.10;1.00;;;;;;5053931;28;20186;-75
2022/03/01 01:08:32;;;;;;;11.30;5.68;;;0.10;1.00;;;;;;5065805;28;20573;-74
2022/03/01 01:11:08;;;;;;;11.43;5.88;;;0.10;1.00;;;;;;5053668;28;20183;-74
2022/03/01 01:13:34;;;;;;;12.13;6.60;;;0.10;1.00;;;;;;5062587;28;20201;-75
2022/03/01 01:16:25;;;;;;;13.32;6.50;;;0.00;1.00;;;;;;5058322;28;20233;-74
2022/03/01 01:18:50;;;;;;;11.77;6.97;;;0.00;1.00;;;;;;5053707;28;20206;-74
2022/03/01 01:21:16;;;;;;;13.03;6.40;;;0.00;1.00;;;;;;5053325;28;20226;-74
2022/03/01 01:23:44;;;;;;;9.67;6.00;;;0.00;1.00;;;;;;5053730;28;20255;-74
2022/03/01 01:26:15;;;;;;;12.48;6.90;;;-0.10;1.00;;;;;;5058770;28;20205;-75
2022/03/01 01:28:44;;;;;;;16.42;6.97;;;-0.10;1.00;;;;;;5061441;28;20237;-75
2022/03/01 01:31:10;;;;;;;12.60;6.78;;;-0.20;1.00;;;;;;5054351;28;20191;-74
2022/03/01 01:33:38;;;;;;;11.10;6.20;;;-0.20;1.00;;;;;;5053671;28;20176;-75
2022/03/01 01:36:14;;;;;;;8.95;6.32;;;-0.20;1.00;;;;;;5046745;28;20553;-74
2022/03/01 01:38:51;;;;;;;11.30;5.97;;;-0.20;1.00;;;;;;5061375;28;20631;-75
2022/03/01 01:41:20;;;;;;;10.50;6.32;;;-0.20;1.00;;;;;;5053299;28;20195;-75
2022/03/01 01:43:46;;;;;;;10.07;6.30;;;-0.20;1.00;;;;;;5066715;28;20172;-74
2022/03/01 01:46:38;;;;;;;11.70;6.60;;;-0.20;1.00;;;;;;5063960;28;20524;-74
2022/03/01 01:49:08;;;;;;;11.43;6.03;;;-0.20;1.00;;;;;;5047232;28;20417;-74
2022/03/01 01:51:38;;;;;;;10.15;6.35;;;-0.20;1.00;;;;;;5058009;28;20183;-75
2022/03/01 01:54:05;;;;;;;11.93;6.78;;;-0.30;1.00;;;;;;5053222;28;20195;-75
2022/03/01 01:56:50;;;;;;;12.02;6.97;;;-0.30;1.00;;;;;;5055258;28;20168;-75
2022/03/01 01:59:27;;;;;;;13.70;6.97;;;-0.30;1.00;;;;;;5065947;28;20187;-75
2022/03/01 02:01:52;;;;;;;12.63;6.90;;;-0.20;1.00;;;;;;5067032;28;20194;-75
2022/03/01 02:04:18;;;;;;;13.27;6.70;;;-0.10;1.00;;;;;;5072026;28;20651;-74
2022/03/01 02:06:53;;;;;;;14.27;6.97;;;-0.10;1.00;;;;;;5056372;28;20167;-74
2022/03/01 02:09:26;;;;;;;12.43;6.50;;;0.00;1.00;;;;;;5056984;28;20181;-75
2022/03/01 02:11:56;;;;;;;13.90;6.70;;;0.00;1.00;;;;;;5059893;28;20679;-75
2022/03/01 02:14:22;;;;;;;11.05;6.65;;;0.00;1.00;;;;;;5070018;28;20541;-74
2022/03/01 02:16:48;;;;;;;13.27;6.63;;;0.10;1.00;;;;;;5063390;28;20183;-74
2022/03/01 02:19:14;;;;;;;16.08;7.72;;;0.10;1.00;;;;;;5072810;28;20190;-74
2022/03/01 02:21:51;;;;;;;11.20;6.90;;;0.00;1.00;;;;;;5067661;28;20731;-74
2022/03/01 02:24:22;;;;;;;13.68;7.15;;;0.10;1.00;;;;;;5070480;28;20175;-74
2022/03/01 02:27:08;;;;;;;12.55;7.40;;;0.20;1.00;;;;;;5068262;28;20176;-75
2022/03/01 02:29:39;;;;;;;13.88;6.78;;;0.20;1.00;;;;;;5051684;28;20257;-74
2022/03/01 02:32:09;;;;;;;14.18;6.57;;;0.20;1.00;;;;;;5070409;28;20254;-74
2022/03/01 02:34:38;;;;;;;13.27;6.55;;;0.20;1.00;;;;;;5067778;28;20176;-75
2022/03/01 02:37:15;;;;;;;12.10;6.00;;;0.20;1.00;;;;;;5069997;28;20658;-74
2022/03/01 02:39:41;;;;;;;11.77;6.75;;;0.30;1.00;;;;;;5067101;28;20265;-75
2022/03/01 02:42:06;;;;;;;11.63;6.80;;;0.20;1.00;;;;;;5061684;28;20320;-75
2022/03/01 02:44:32;;;;;;;14.10;7.17;;;0.20;1.00;;;;;;5073761;28;20183;-75
2022/03/01 02:46:58;;;;;;;15.68;6.50;;;0.20;1.00;;;;;;5073123;28;20172;-75
2022/03/01 02:49:26;;;;;;;11.60;7.20;;;0.10;1.00;;;;;;5066921;28;20643;-75
2022/03/01 02:51:56;;;;;;;13.18;6.90;;;0.10;1.00;;;;;;5058598;28;20632;-75
2022/03/01 02:54:22;;;;;;;16.50;7.68;;;0.10;1.00;;;;;;5067591;28;20215;-75
2022/03/01 02:56:50;;;;;;;10.57;6.43;;;0.10;1.00;;;;;;5063086;28;20194;-74
2022/03/01 02:59:38;;;;;;;13.18;7.25;;;0.00;1.00;;;;;;5064581;28;20179;-75
2022/03/01 03:02:15;;;;;;;13.90;6.85;;;0.00;1.00;;;;;;5044047;28;20207;-74
2022/03/01 03:04:42;;;;;;;15.05;7.28;;;0.00;1.00;;;;;;5041461;28;20207;-74
2022/03/01 03:07:15;;;;;;;13.25;6.63;;;0.00;1.00;;;;;;5065253;28;20744;-74
2022/03/01 03:09:56;;;;;;;13.50;6.90;;;-0.10;1.00;;;;;;5062847;28;20179;-74
2022/03/01 03:12:27;;;;;;;12.00;6.70;;;-0.10;1.00;;;;;;5063019;28;20721;-74
2022/03/01 03:15:09;;;;;;;12.52;6.60;;;-0.20;1.00;;;;;;5049317;28;20186;-74
2022/03/01 03:17:44;;;;;;;16.35;7.00;;;-0.20;1.00;;;;;;5060650;28;20190;-75
2022/03/01 03:20:14;;;;;;;13.63;7.13;;;-0.20;1.00;;;;;;5055935;28;20194;-75
2022/03/01 03:22:40;;;;;;;12.25;6.07;;;-0.20;1.00;;;;;;5069177;28;20512;-74
2022/03/01 03:25:07;;;;;;;12.43;7.37;;;-0.30;1.00;;;;;;5055966;28;20222;-75
2022/03/01 03:27:39;;;;;;;16.80;8.10;;;-0.30;1.00;;;;;;5059481;28;20425;-75
2022/03/01 03:30:06;;;;;;;13.80;6.90;;;-0.30;1.00;;;;;;5064419;28;20176;-74
2022/03/01 03:32:33;;;;;;;13.38;6.85;;;-0.30;1.00;;;;;;5058052;28;20515;-75
2022/03/01 03:35:04;;;;;;;13.35;6.95;;;-0.40;1.00;;;;;;5055738;28;20267;-75
2022/03/01 03:37:39;;;;;;;14.82;6.85;;;-0.40;1.00;;;;;;5061187;28;20183;-74
2022/03/01 03:40:05;;;;;;;14.10;6.43;;;-0.50;1.00;;;;;;5062284;28;20265;-75
2022/03/01 03:42:31;;;;;;;14.98;8.00;;;-0.50;1.00;;;;;;5055207;28;20202;-75
2022/03/01 03:45:09;;;;;;;19.07;7.30;;;-0.50;1.00;;;;;;5068540;28;20179;-75
2022/03/01 03:47:35;;;;;;;12.43;6.00;;;-0.60;1.00;;;;;;5055523;28;20206;-75
2022/03/01 03:50:00;;;;;;;13.10;6.60;;;-0.60;1.00;;;;;;5057616;28;20569;-75
2022/03/01 03:52:26;;;;;;;17.27;6.67;;;-0.60;1.00;;;;;;5066214;28;20215;-75
2022/03/01 03:54:52;;;;;;;12.33;6.77;;;-0.70;1.00;;;;;;5070965;28;20209;-75
2022/03/01 03:57:17;;;;;;;15.40;7.00;;;-0.70;1.00;;;;;;5061004;28;20174;-75
2022/03/01 03:59:44;;;;;;;14.17;7.33;;;-0.70;1.00;;;;;;5057494;28;20211;-74
2022/03/01 04:02:14;;;;;;;14.73;6.63;;;-0.80;1.00;;;;;;5098343;28;20480;-75
2022/03/01 04:04:40;;;;;;;14.00;6.95;;;-0.80;1.00;;;;;;5061539;28;20675;-74
2022/03/01 04:07:09;;;;;;;16.00;7.33;;;-0.80;1.00;;;;;;5066294;28;20183;-75
2022/03/01 04:09:35;;;;;;;17.60;6.78;;;-0.90;1.00;;;;;;5059053;28;20180;-75
2022/03/01 04:12:01;;;;;;;12.47;7.07;;;-0.90;1.00;;;;;;5061132;28;20316;-74
2022/03/01 04:14:34;;;;;;;16.27;7.63;;;-1.00;1.00;;;;;;5059872;28;20906;-74
2022/03/01 04:17:01;;;;;;;12.73;7.13;;;-1.00;1.00;;;;;;5064550;28;20186;-75
2022/03/01 04:19:32;;;;;;;12.02;6.90;;;-1.10;1.00;;;;;;5057961;28;20510;-75
2022/03/01 04:22:03;;;;;;;17.50;8.20;;;-1.10;1.00;;;;;;5064986;28;20677;-74
2022/03/01 04:24:29;;;;;;;12.93;6.60;;;-1.10;1.00;;;;;;5062824;28;20636;-75
2022/03/01 04:26:56;;;;;;;13.83;7.27;;;-1.10;1.00;;;;;;5054687;28;20265;-74
2022/03/01 04:29:33;;;;;;;15.10;7.90;;;-1.20;1.00;;;;;;5063245;28;20651;-75
2022/03/01 04:31:58;;;;;;;12.18;6.47;;;-1.20;1.00;;;;;;5070521;28;20257;-75
2022/03/01 04:34:24;;;;;;;12.57;6.80;;;-1.20;1.00;;;;;;5054890;28;20209;-75
2022/03/01 04:36:50;;;;;;;17.90;6.60;;;-1.20;1.00;;;;;;5054421;28;20160;-75
2022/03/01 04:39:16;;;;;;;15.87;7.30;;;-1.30;1.00;;;;;;5053970;28;20183;-74
2022/03/01 04:41:42;;;;;;;11.67;7.03;;;-1.30;1.00;;;;;;5066255;28;20456;-74
2022/03/01 04:44:09;;;;;;;17.10;7.63;;;-1.30;1.00;;;;;;5068850;28;20445;-75
2022/03/01 04:46:39;;;;;;;15.07;6.85;;;-1.30;1.00;;;;;;5060119;28;20254;-75
2022/03/01 04:49:08;;;;;;;16.05;7.10;;;-1.40;1.00;;;;;;5053248;28;20185;-75
2022/03/01 04:51:45;;;;;;;12.45;6.88;;;-1.40;1.00;;;;;;5058482;28;20635;-75
2022/03/01 04:54:14;;;;;;;13.52;7.00;;;-1.40;1.00;;;;;;5043022;28;20175;-74
2022/03/01 04:56:40;;;;;;;12.60;7.43;;;-1.50;1.00;;;;;;5068228;28;20640;-75
2022/03/01 04:59:06;;;;;;;16.70;7.70;;;-1.50;1.00;;;;;;5064220;28;20207;-75
2022/03/01 05:01:38;;;;;;;14.20;7.77;;;-1.50;1.00;;;;;;5069556;28;20282;-75
2022/03/01 05:04:04;;;;;;;14.55;7.40;;;-1.50;1.00;;;;;;5063528;28;20636;-75
2022/03/01 05:06:30;;;;;;;15.20;7.30;;;-1.60;1.00;;;;;;5069251;28;20214;-75
2022/03/01 05:08:56;;;;;;;14.73;7.40;;;-1.70;1.00;;;;;;5062998;28;20171;-75
2022/03/01 05:11:26;;;;;;;11.98;7.07;;;-1.60;1.00;;;;;;5058182;28;20413;-75
2022/03/01 05:14:09;;;;;;;14.50;7.60;;;-1.70;1.00;;;;;;5073622;28;20651;-75
2022/03/01 05:16:34;;;;;;;12.13;7.40;;;-1.70;1.00;;;;;;5052798;28;20187;-75
2022/03/01 05:19:09;;;;;;;14.20;6.80;;;-1.70;1.00;;;;;;5067769;28;20170;-74
2022/03/01 05:21:36;;;;;;;13.65;6.93;;;-1.70;1.00;;;;;;5061762;28;20190;-74
2022/03/01 05:24:03;;;;;;;15.40;7.00;;;-1.70;1.00;;;;;;5071649;28;20627;-75
2022/03/01 05:26:38;;;;;;;15.73;7.63;;;-1.80;1.00;;;;;;5062553;28;20183;-74
2022/03/01 05:29:14;;;;;;;14.98;7.80;;;-1.80;1.00;;;;;;5060253;28;20519;-74
2022/03/01 05:31:56;;;;;;;17.80;8.00;;;-1.80;1.00;;;;;;5062353;28;20627;-74
2022/03/01 05:34:32;;;;;;;13.75;7.38;;;-1.80;1.00;;;;;;5044954;28;20186;-75
2022/03/01 05:36:58;;;;;;;16.38;7.25;;;-1.80;1.00;;;;;;5057569;28;20171;-75
2022/03/01 05:39:24;;;;;;;13.13;7.97;;;-1.80;1.00;;;;;;5065886;28;20178;-74
2022/03/01 05:41:51;;;;;;;15.57;8.27;;;-1.90;1.00;;;;;;5064109;28;20454;-75
2022/03/01 05:44:16;;;;;;;16.95;7.95;;;-1.90;1.00;;;;;;5068598;28;20620;-75
2022/03/01 05:46:42;;;;;;;13.50;7.50;;;-1.90;1.00;;;;;;5062481;28;20191;-75
2022/03/01 05:49:08;;;;;;;17.00;8.13;;;-1.90;1.00;;;;;;5077913;28;20759;-74
2022/03/01 05:51:45;;;;;;;18.37;8.20;;;-2.00;1.00;;;;;;5063888;28;20190;-74
2022/03/01 05:54:10;;;;;;;14.70;7.90;;;-1.90;1.00;;;;;;5067296;28;20175;-75
2022/03/01 05:56:36;;;;;;;16.70;8.47;;;-1.90;1.00;;;;;;5060481;28;20213;-74
2022/03/01 05:59:03;;;;;;;15.60;8.20;;;-2.00;1.00;;;;;;5065084;28;20454;-74
2022/03/01 06:01:33;;;;;;;15.77;8.25;;;-2.00;1.00;;;;;;5070640;28;20199;-74
2022/03/01 06:04:02;;;;;;;14.55;7.50;;;-2.00;1.00;;;;;;5057430;28;20170;-75
2022/03/01 06:06:33;;;;;;;14.15;7.75;;;-2.00;1.00;;;;;;5076803;28;20541;-75
2022/03/01 06:09:09;;;;;;;15.18;8.10;;;-2.00;1.00;;;;;;5062897;28;20168;-75
2022/03/01 06:11:34;;;;;;;19.50;8.20;;;-2.00;1.00;;;;;;5053429;28;20597;-76
2022/03/01 06:14:03;;;;;;;16.83;8.20;;;-2.00;1.00;;;;;;5062219;28;20206;-75
2022/03/01 06:16:29;;;;;;;16.13;8.10;;;-2.00;1.00;;;;;;5076186;28;20175;-74
2022/03/01 06:19:03;;;;;;;16.00;7.90;;;-2.00;1.00;;;;;;5058110;28;20179;-74
2022/03/01 06:21:29;;;;;;;14.43;8.13;;;-2.00;1.00;;;;;;5056390;28;20449;-75
2022/03/01 06:23:56;;;;;;;14.70;8.50;;;-1.90;1.00;;;;;;5051673;28;20246;-73
2022/03/01 06:26:22;;;;;;;14.40;8.10;;;-2.00;1.00;;;;;;5053733;28;20183;-74
2022/03/01 06:28:51;;;;;;;17.63;7.75;;;-1.90;1.00;;;;;;5057022;28;20647;-74
2022/03/01 06:31:17;;;;;;;21.35;8.13;;;-1.90;1.00;;;;;;5052041;28;20182;-75
2022/03/01 06:33:43;;;;;;;15.70;8.50;;;-1.90;1.00;;;;;;5064488;28;20179;-75
2022/03/01 06:36:32;;;;;;;13.70;8.00;;;-2.00;1.00;;;;;;5057080;28;20242;-75
2022/03/01 06:38:59;;;;;;;16.50;8.60;;;-1.80;1.00;;;;;;5068237;28;20182;-75
2022/03/01 06:41:26;;;;;;;23.35;9.95;;;-1.80;1.00;;;;;;5062891;28;20210;-75
2022/03/01 06:43:52;;;;;;;19.87;9.40;;;;;;;;;;5053498;28;20586;-75
2022/03/01 06:46:21;;;;;;;28.73;11.95;;;-1.20;1.00;;;;;;5061570;28;20246;-74
2022/03/01 06:48:47;;;;;;;16.92;8.95;;;-1.50;1.00;;;;;;5066310;28;20259;-75
2022/03/01 06:51:15;;;;;;;17.48;8.10;;;-1.50;1.00;;;;;;5058011;28;20241;-75
2022/03/01 06:53:45;;;;;;;16.15;7.88;;;-1.50;1.00;;;;;;5067717;28;20613;-75
2022/03/01 06:56:14;;;;;;;17.30;9.05;;;-1.40;1.00;;;;;;5049931;28;20504;-75
2022/03/01 06:58:40;;;;;;;15.05;8.07;;;-1.40;1.00;;;;;;5059521;28;20226;-75
2022/03/01 07:01:06;;;;;;;13.40;7.37;;;-1.20;1.00;;;;;;5055947;28;20623;-75
2022/03/01 07:03:34;;;;;;;15.47;8.13;;;-1.20;1.00;;;;;;5065414;28;20175;-75
2022/03/01 07:06:20;;;;;;;16.40;8.38;;;-1.20;1.00;;;;;;5048573;28;20421;-74
2022/03/01 07:08:46;;;;;;;20.33;10.18;;;-1.10;1.00;;;;;;5061633;28;20233;-74
2022/03/01 07:11:12;;;;;;;16.77;8.77;;;-1.00;1.00;;;;;;5062145;28;20180;-74
2022/03/01 07:13:37;;;;;;;22.30;10.00;;;-0.90;1.00;;;;;;5069515;28;20422;-75
2022/03/01 07:16:05;;;;;;;17.90;8.97;;;-0.90;1.00;;;;;;5073025;28;20183;-75
2022/03/01 07:18:31;;;;;;;44.47;20.88;;;-0.80;1.00;;;;;;5062860;28;20179;-75
2022/03/01 07:20:56;;;;;;;23.23;11.48;;;-0.80;1.00;;;;;;5072514;28;20193;-75
2022/03/01 07:23:22;;;;;;;17.87;9.20;;;-0.60;1.00;;;;;;5058312;28;20176;-75
2022/03/01 07:25:48;;;;;;;30.07;12.23;;;-0.60;1.00;;;;;;5052450;28;20532;-75
2022/03/01 07:28:13;;;;;;;20.20;9.67;;;-0.50;1.00;;;;;;5058003;28;20183;-75
2022/03/01 07:30:44;;;;;;;26.70;10.67;;;-0.40;1.00;;;;;;5054151;28;20691;-76
2022/03/01 07:33:10;;;;;;;15.23;9.15;;;-0.40;1.00;;;;;;5068287;28;20178;-75
2022/03/01 07:35:36;;;;;;;319.27;132.37;;;-0.40;1.00;;;;;;5074280;28;20233;-74
2022/03/01 07:38:01;;;;;;;44.30;20.03;;;-0.30;1.00;;;;;;5069814;28;20207;-74
2022/03/01 07:40:27;;;;;;;22.33;12.10;;;-0.20;1.00;;;;;;5054077;28;20727;-74
2022/03/01 07:42:54;;;;;;;18.53;10.03;;;0.10;1.00;;;;;;5068316;28;20203;-72
2022/03/01 07:45:20;;;;;;;17.25;8.80;;;0.10;1.00;;;;;;5053728;28;20612;-71
2022/03/01 07:47:46;;;;;;;23.55;9.05;;;0.20;1.00;;;;;;5056974;28;20284;-72
2022/03/01 07:50:12;;;;;;;18.63;8.90;;;0.30;1.00;;;;;;5063596;28;20662;-72
2022/03/01 07:52:38;;;;;;;28.33;12.82;;;0.40;1.00;;;;;;5059548;28;20211;-76
2022/03/01 07:55:04;;;;;;;20.13;9.13;;;0.60;1.00;;;;;;5058595;28;20288;-76
2022/03/01 07:57:30;;;;;;;22.85;11.10;;;0.80;1.00;;;;;;5057592;28;20178;-75
2022/03/01 07:59:56;;;;;;;38.90;18.50;;;0.80;1.00;;;;;;5065430;28;20194;-75
2022/03/01 08:02:22;;;;;;;26.23;13.03;;;1.00;1.00;;;;;;5057800;28;20659;-75
2022/03/01 08:04:47;;;;;;;14.77;8.00;;;1.10;1.00;;;;;;5062577;28;20179;-75
2022/03/01 08:07:13;;;;;;;22.07;8.80;;;1.10;1.00;;;;;;5054488;28;20206;-75
2022/03/01 08:09:40;;;;;;;87.50;34.50;;;1.20;1.00;;;;;;5070695;28;20175;-83
2022/03/01 08:12:07;;;;;;;22.67;9.15;;;1.40;1.00;;;;;;5058508;28;20175;-81
2022/03/01 08:14:34;;;;;;;13.40;7.22;;;1.60;1.00;;;;;;5069934;28;20240;-81
2022/03/01 08:17:00;;;;;;;325.55;140.10;;;1.60;1.00;;;;;;5068823;28;20596;-81
2022/03/01 08:19:26;;;;;;;22.92;11.75;;;1.70;1.00;;;;;;5060602;28;20210;-81
2022/03/01 08:21:51;;;;;;;84.00;35.77;;;1.80;1.00;;;;;;5057628;28;20226;-81
2022/03/01 08:24:17;;;;;;;15.80;8.30;;;;;;;;;;5058680;28;20172;-81
2022/03/01 08:26:43;;;;;;;16.58;9.15;;;;;;;;;;5058990;28;20492;-81
2022/03/01 08:29:09;;;;;;;13.98;7.95;;;2.10;1.00;;;;;;5061110;28;20197;-81
2022/03/01 08:31:39;;;;;;;16.20;8.10;;;2.20;1.00;;;;;;5073344;28;20274;-81
2022/03/01 08:34:05;;;;;;;51.97;25.58;;;;;;;;;;5061094;28;20175;-81
2022/03/01 08:36:31;;;;;;;18.48;9.90;;;2.40;1.00;;;;;;5053234;28;20175;-84
2022/03/01 08:38:57;;;;;;;15.33;7.50;;;;;;;;;;5056927;28;20257;-84
2022/03/01 08:41:24;;;;;;;14.67;6.70;;;;;;;;;;5067769;28;20206;-84
2022/03/01 08:43:49;;;;;;;29.30;10.35;;;2.80;1.00;;;;;;5059163;28;20410;-79
2022/03/01 08:46:15;;;;;;;30.33;11.37;;;;;;;;;;5068435;28;20187;-83
2022/03/01 08:48:41;;;;;;;35.90;13.50;;;3.00;1.00;;;;;;5057846;28;20190;-82
2022/03/01 08:51:07;;;;;;;142.30;48.20;;;;;;;;;;5069903;28;20182;-83
2022/03/01 08:53:34;;;;;;;50.67;18.52;;;;;;;;;;5045910;28;20253;-83
2022/03/01 08:56:00;;;;;;;27.83;10.50;;;3.30;1.00;;;;;;5058735;28;20203;-84
2022/03/01 08:58:26;;;;;;;68.50;26.50;;;3.50;1.00;;;;;;5060845;28;20816;-84
2022/03/01 09:00:52;;;;;;;18.50;9.77;;;3.50;1.00;;;;;;5066544;28;20636;-83
2022/03/01 09:03:18;;;;;;;55.85;26.48;;;;;;;;;;5062291;28;20588;-83
2022/03/01 09:05:44;;;;;;;37.87;17.47;;;;;;;;;;5058206;28;20171;-84
2022/03/01 09:08:12;;;;;;;112.27;41.30;;;;;;;;;;5070069;28;20414;-84
2022/03/01 09:10:41;;;;;;;32.35;13.02;;;3.90;1.00;;;;;;5060108;28;20858;-76
2022/03/01 09:13:07;;;;;;;23.10;10.37;;;4.00;1.00;;;;;;5057311;28;20180;-75
2022/03/01 09:15:33;;;;;;;52.45;21.73;;;;;;;;;;5046254;28;20422;-75
2022/03/01 09:18:05;;;;;;;65.38;24.50;;;4.00;1.00;;;;;;5066203;28;20637;-76
2022/03/01 09:20:32;;;;;;;106.53;34.80;;;5.60;1.00;;;;;;5055486;28;20183;-74
2022/03/01 09:22:58;;;;;;;33.17;14.13;;;4.10;1.00;;;;;;5059192;28;20204;-74
2022/03/01 09:25:24;;;;;;;40.22;15.27;;;4.30;1.00;;;;;;5052251;28;20183;-74
2022/03/01 09:27:49;;;;;;;101.63;34.73;;;4.50;99.90;;;;;;5052159;28;20193;-75
2022/03/01 09:30:16;;;;;;;32.57;12.73;;;5.30;99.90;;;;;;5060010;28;20435;-75
2022/03/01 09:32:43;;;;;;;192.00;55.45;;;4.60;99.90;;;;;;5060654;28;20666;-75
2022/03/01 09:35:09;;;;;;;142.67;44.00;;;4.80;99.90;;;;;;5052394;28;20199;-75
2022/03/01 09:37:35;;;;;;;36.50;12.47;;;4.80;99.90;;;;;;5054917;28;20512;-75
2022/03/01 09:40:03;;;;;;;266.33;76.87;;;5.00;99.90;;;;;;5054545;28;20556;-75
2022/03/01 09:42:29;;;;;;;53.67;21.13;;;5.10;99.90;;;;;;5059112;28;20457;-75
2022/03/01 09:44:55;;;;;;;62.20;23.83;;;5.20;99.90;;;;;;5061959;28;20413;-75
2022/03/01 09:47:21;;;;;;;151.73;58.73;;;5.20;99.90;;;;;;5058941;28;20926;-75
2022/03/01 09:49:48;;;;;;;258.00;108.10;;;5.10;99.90;;;;;;5051570;28;20944;-75
2022/03/01 09:52:14;;;;;;;339.30;111.97;;;5.30;99.90;;;;;;5066070;28;20425;-75
2022/03/01 09:54:40;;;;;;;42.73;14.93;;;5.40;99.90;;;;;;5056113;28;20507;-75
2022/03/01 09:57:06;;;;;;;97.07;31.37;;;;;;;;;;5054773;28;20430;-75
2022/03/01 09:59:32;;;;;;;14.27;6.57;;;;;;;;;;5072243;28;20411;-75
2022/03/01 10:01:58;;;;;;;32.40;11.90;;;5.60;99.90;;;;;;5061202;28;20489;-75
2022/03/01 10:04:25;;;;;;;31.90;12.60;;;;;;;;;;5072306;28;20850;-75
2022/03/01 10:06:51;;;;;;;70.30;23.30;;;6.00;99.90;;;;;;5058373;28;20226;-76
2022/03/01 10:09:20;;;;;;;31.33;12.50;;;6.10;99.90;;;;;;5058950;28;20421;-77
2022/03/01 10:11:47;;;;;;;29.73;10.27;;;6.20;99.90;;;;;;5056529;28;20422;-76
2022/03/01 10:14:14;;;;;;;340.80;101.03;;;6.20;99.90;;;;;;5067629;28;20429;-75
2022/03/01 10:16:44;;;;;;;27.70;11.83;;;6.30;99.90;;;;;;5057793;28;20438;-75
2022/03/01 10:19:21;;;;;;;28.27;10.73;;;6.70;99.90;;;;;;5066962;28;20868;-75
2022/03/01 10:22:00;;;;;;;16.30;7.90;;;7.00;99.90;;;;;;5060470;28;20468;-75
2022/03/01 10:24:26;;;;;;;8.83;5.53;;;6.50;99.90;;;;;;5067414;28;20829;-75
2022/03/01 10:27:01;;;;;;;10.37;6.00;;;6.50;99.90;;;;;;5063455;28;20432;-75
2022/03/01 10:29:28;;;;;;;15.40;7.87;;;6.50;99.90;;;;;;5068591;28;20906;-75
2022/03/01 10:31:59;;;;;;;88.00;37.53;;;7.40;99.90;;;;;;5061399;28;20421;-75
2022/03/01 10:34:36;;;;;;;76.83;33.73;;;6.90;99.90;;;;;;5069597;28;20821;-75
2022/03/01 10:37:02;;;;;;;29.57;13.80;;;6.90;99.90;;;;;;5043909;28;20417;-74
2022/03/01 10:39:29;;;;;;;29.27;14.27;;;6.80;99.90;;;;;;5060768;28;20806;-74
2022/03/01 10:41:56;;;;;;;17.60;9.10;;;6.80;99.90;;;;;;5068442;28;20883;-75
2022/03/01 10:44:30;;;;;;;15.30;7.50;;;7.90;99.90;;;;;;5069955;28;20429;-75
2022/03/01 10:46:58;;;;;;;23.47;9.10;;;6.70;99.90;;;;;;5065097;28;20429;-75
2022/03/01 10:49:29;;;;;;;20.80;10.80;;;6.70;99.90;;;;;;5066100;28;20793;-75
2022/03/01 10:51:59;;;;;;;12.37;6.93;;;6.50;99.90;;;;;;5066331;28;20795;-74
2022/03/01 10:54:37;;;;;;;68.67;27.70;;;6.60;99.90;;;;;;5070050;28;20439;-75
2022/03/01 10:57:06;;;;;;;10.20;5.70;;;6.70;99.90;;;;;;5035027;28;20434;-75
2022/03/01 10:59:34;;;;;;;9.23;5.37;;;6.90;99.90;;;;;;5061329;28;20945;-75
2022/03/01 11:02:01;;;;;;;17.03;8.60;;;6.80;99.90;;;;;;5066884;28;20494;-74
2022/03/01 11:04:27;;;;;;;10.07;5.10;;;6.90;99.90;;;;;;5055021;28;20895;-75
2022/03/01 11:07:00;;;;;;;13.20;5.10;;;7.00;99.90;;;;;;5055295;28;20424;-75
2022/03/01 11:09:30;;;;;;;13.23;5.00;;;7.30;99.90;;;;;;5063094;28;20918;-75
2022/03/01 11:12:09;;;;;;;11.37;5.37;;;7.40;99.90;;;;;;5053181;28;20898;-75
2022/03/01 11:15:15;;;;;;;16.70;7.57;;;7.60;99.90;;;;;;5056103;28;20569;-78
2022/03/01 11:18:10;;;;;;;6.60;4.00;;;7.60;99.90;;;;;;5054903;28;20495;-75
2022/03/01 11:20:41;;;;;;;10.43;4.83;;;7.80;99.90;;;;;;5059584;28;20421;-76
2022/03/01 11:23:12;;;;;;;10.73;5.03;;;7.80;99.90;;;;;;5060738;28;20520;-75
2022/03/01 11:25:46;;;;;;;8.40;4.83;;;7.70;99.90;;;;;;5051863;28;20937;-75
2022/03/01 11:28:12;;;;;;;10.03;5.43;;;7.90;99.90;;;;;;5053212;28;20441;-75
2022/03/01 11:30:52;;;;;;;9.97;5.30;;;7.90;99.90;;;;;;5054076;28;20906;-74
2022/03/01 11:33:28;;;;;;;9.33;5.07;;;8.10;99.90;;;;;;5052467;28;20414;-73
2022/03/01 11:35:56;;;;;;;9.80;5.53;;;8.10;99.90;;;;;;5055168;28;20736;-73
2022/03/01 11:38:33;;;;;;;8.37;4.57;;;8.20;99.90;;;;;;5060943;28;20485;-75
2022/03/01 11:41:16;;;;;;;14.13;8.03;;;8.30;99.90;;;;;;5065340;28;20418;-75
2022/03/01 11:43:42;;;;;;;110.80;38.13;;;8.60;99.90;;;;;;5053337;28;20546;-75
2022/03/01 11:46:26;;;;;;;26.83;12.43;;;8.60;99.90;;;;;;5058989;28;20513;-74
2022/03/01 11:48:55;;;;;;;12.70;7.10;;;8.70;99.90;;;;;;5047825;28;20483;-75
2022/03/01 11:51:39;;;;;;;9.87;4.23;;;8.50;99.90;;;;;;5055032;28;20512;-76
2022/03/01 11:54:11;;;;;;;33.70;16.00;;;8.60;99.90;;;;;;5055111;28;20480;-75
2022/03/01 11:56:39;;;;;;;6.83;4.20;;;8.40;99.90;;;;;;5054228;28;20450;-75
2022/03/01 11:59:15;;;;;;;31.77;15.17;;;8.50;99.90;;;;;;5053703;28;20425;-75
2022/03/01 12:01:46;;;;;;;9.60;5.60;;;8.70;99.90;;;;;;5054156;28;20430;-80
2022/03/01 12:11:03;;;;;;;40.23;18.90;;;8.60;99.90;;;;;;5067855;28;20409;-80
2022/03/01 12:13:39;;;;;;;21.07;9.30;;;8.80;99.90;;;;;;5059872;28;20465;-81
2022/03/01 12:16:06;;;;;;;40.50;16.60;;;8.90;99.90;;;;;;5050497;28;20792;-81
2022/03/01 12:22:16;;;;;;;11.57;6.93;;;9.10;99.90;;;;;;5054298;28;20879;-79
2022/03/01 12:24:51;;;;;;;12.30;6.10;;;9.00;99.90;;;;;;5054687;28;20427;-79
2022/03/01 12:27:30;;;;;;;11.90;5.80;;;9.00;99.90;;;;;;5056113;28;20410;-78
2022/03/01 12:30:22;;;;;;;9.90;5.23;;;9.10;99.90;;;;;;5054778;28;20929;-78
2022/03/01 12:32:58;;;;;;;7.13;4.80;;;9.10;99.90;;;;;;5074441;28;20385;-78
2022/03/01 12:35:33;;;;;;;7.53;5.03;;;9.40;99.90;;;;;;5054600;28;20417;-79
2022/03/01 12:38:13;;;;;;;15.33;4.87;;;9.60;99.90;;;;;;5067733;28;20451;-78
2022/03/01 12:40:42;;;;;;;7.20;4.10;;;9.60;99.90;;;;;;5041625;28;20443;-78
2022/03/01 12:43:40;;;;;;;7.40;4.93;;;9.40;99.90;;;;;;5066913;28;20441;-78
2022/03/01 12:46:06;;;;;;;9.10;4.50;;;9.70;99.90;;;;;;5053628;28;20726;-74
2022/03/01 12:48:43;;;;;;;6.70;4.50;;;9.70;99.90;;;;;;5057465;28;20484;-73
2022/03/01 12:51:08;;;;;;;11.80;4.80;;;9.60;99.90;;;;;;5067165;28;20181;-74
2022/03/01 12:53:59;;;;;;;18.80;7.40;;;9.70;99.90;;;;;;5053859;28;20418;-73
2022/03/01 12:56:31;;;;;;;10.37;5.13;;;9.40;99.90;;;;;;5052468;28;20705;-74
2022/03/01 12:59:02;;;;;;;7.43;4.20;;;9.30;99.90;;;;;;5063203;28;20746;-75
2022/03/01 13:01:35;;;;;;;9.40;4.60;;;9.30;99.90;;;;;;5062512;28;21028;-74
2022/03/01 13:04:09;;;;;;;8.93;4.60;;;9.50;99.90;;;;;;5064844;28;20400;-74
2022/03/01 13:06:37;;;;;;;281.23;83.30;;;9.30;99.90;;;;;;5053576;28;20445;-74
2022/03/01 13:09:09;;;;;;;83.03;35.27;;;9.10;99.90;;;;;;5070487;28;20432;-74
2022/03/01 13:11:39;;;;;;;10.37;4.90;;;9.10;99.90;;;;;;5052095;28;20882;-73
2022/03/01 13:14:10;;;;;;;7.73;4.10;;;9.30;99.90;;;;;;5063939;28;20405;-73
2022/03/01 13:16:41;;;;;;;107.17;27.60;;;9.40;99.90;;;;;;5055144;28;20426;-74